createdAt,value
2023-06-11T00:01:28.541Z,52.97
2023-06-11T00:03:55.951Z,53.19
2023-06-11T00:06:24.611Z,53.42
2023-06-11T00:08:53.700Z,53.17
2023-06-11T00:11:24.042Z,53.17
2023-06-11T00:13:51.760Z,52.84
2023-06-11T00:16:18.850Z,52.60
2023-06-11T00:18:46.300Z,52.49
2023-06-11T00:21:14.977Z,52.73
2023-06-11T00:23:42.051Z,52.86
2023-06-11T00:26:09.210Z,53.30
2023-06-11T00:28:36.599Z,53.76
2023-06-11T00:31:07.266Z,54.11
2023-06-11T00:33:34.392Z,54.23
2023-06-11T00:36:01.298Z,53.94
2023-06-11T00:38:29.617Z,53.88
2023-06-11T00:40:56.662Z,53.91
2023-06-11T00:43:24.958Z,53.69
2023-06-11T00:45:52.918Z,53.74
2023-06-11T00:48:21.328Z,53.87
2023-06-11T00:50:50.387Z,53.76
2023-06-11T00:53:19.186Z,53.60
2023-06-11T00:55:46.865Z,53.89
2023-06-11T00:58:15.768Z,53.88
2023-06-11T01:00:50.549Z,53.75
2023-06-11T01:03:23.587Z,53.92
2023-06-11T01:06:03.713Z,53.88
2023-06-11T01:08:34.231Z,53.93
2023-06-11T01:11:02.850Z,53.63
2023-06-11T01:13:33.355Z,53.81
2023-06-11T01:16:13.605Z,54.21
2023-06-11T01:19:04.413Z,54.35
2023-06-11T01:21:51.665Z,54.97
2023-06-11T01:24:41.360Z,54.81
2023-06-11T01:27:20.179Z,54.82
2023-06-11T01:29:50.304Z,54.58
2023-06-11T01:32:25.018Z,54.61
2023-06-11T01:35:02.152Z,54.49
2023-06-11T01:37:33.840Z,54.56
2023-06-11T01:40:01.378Z,54.10
2023-06-11T01:42:39.678Z,54.30
2023-06-11T01:45:08.063Z,54.28
2023-06-11T01:47:35.069Z,54.44
2023-06-11T01:50:04.072Z,54.51
2023-06-11T01:52:31.279Z,54.96
2023-06-11T01:54:58.329Z,54.64
2023-06-11T01:57:25.398Z,55.10
2023-06-11T01:59:52.352Z,55.31
2023-06-11T02:02:20.063Z,55.73
2023-06-11T02:04:47.010Z,56.00
2023-06-11T02:07:14.596Z,55.89
2023-06-11T02:09:41.564Z,55.67
2023-06-11T02:12:08.711Z,55.75
2023-06-11T02:14:35.634Z,55.55
2023-06-11T02:17:02.600Z,55.63
2023-06-11T02:19:35.398Z,55.40
2023-06-11T02:22:02.425Z,55.08
2023-06-11T02:24:29.453Z,55.24
2023-06-11T02:26:56.485Z,55.25
2023-06-11T02:29:23.457Z,55.42
2023-06-11T02:31:50.708Z,55.35
2023-06-11T02:34:18.285Z,55.80
2023-06-11T02:36:45.404Z,56.44
2023-06-11T02:39:12.353Z,56.63
2023-06-11T02:41:39.279Z,56.77
2023-06-11T02:44:06.190Z,57.12
2023-06-11T02:46:33.333Z,57.37
2023-06-11T02:49:00.457Z,57.62
2023-06-11T02:51:27.431Z,57.70
2023-06-11T02:53:54.353Z,57.60
2023-06-11T02:56:21.342Z,57.64
2023-06-11T02:58:48.558Z,57.51
2023-06-11T03:01:15.892Z,57.42
2023-06-11T03:03:43.021Z,57.47
2023-06-11T03:06:11.518Z,57.58
2023-06-11T03:08:38.653Z,58.09
2023-06-11T03:11:05.606Z,58.25
2023-06-11T03:13:36.523Z,58.92
2023-06-11T03:16:03.615Z,59.01
2023-06-11T03:18:30.636Z,59.40
2023-06-11T03:20:57.790Z,60.13
2023-06-11T03:23:24.747Z,60.28
2023-06-11T03:25:52.041Z,60.60
2023-06-11T03:28:19.676Z,60.52
2023-06-11T03:30:46.930Z,60.10
2023-06-11T03:33:13.994Z,59.84
2023-06-11T03:35:41.060Z,59.68
2023-06-11T03:38:17.284Z,59.30
2023-06-11T03:40:44.236Z,59.13
2023-06-11T03:43:11.291Z,58.85
2023-06-11T03:45:40.838Z,58.96
2023-06-11T03:48:09.207Z,59.40
2023-06-11T03:50:36.475Z,59.79
2023-06-11T03:53:03.808Z,59.96
2023-06-11T03:55:31.083Z,60.39
2023-06-11T03:57:58.275Z,60.50
2023-06-11T04:00:26.184Z,59.79
2023-06-11T04:02:56.674Z,59.25
2023-06-11T04:05:26.196Z,57.64
2023-06-11T04:07:56.698Z,56.51
2023-06-11T04:10:24.031Z,54.94
2023-06-11T04:12:51.262Z,54.58
2023-06-11T04:15:18.285Z,53.72
2023-06-11T04:17:46.435Z,53.07
2023-06-11T04:20:13.436Z,52.48
2023-06-11T04:22:41.031Z,51.99
2023-06-11T04:25:08.509Z,51.48
2023-06-11T04:27:37.740Z,50.83
2023-06-11T04:30:08.263Z,50.61
2023-06-11T04:32:38.055Z,50.56
2023-06-11T04:35:06.394Z,50.39
2023-06-11T04:37:41.678Z,49.72
2023-06-11T04:40:15.466Z,49.81
2023-06-11T04:42:44.311Z,48.98
2023-06-11T04:45:12.827Z,49.57
2023-06-11T04:47:41.833Z,49.28
2023-06-11T04:50:09.652Z,49.39
2023-06-11T04:52:39.101Z,49.70
2023-06-11T04:55:11.325Z,50.46
2023-06-11T04:57:39.852Z,51.08
2023-06-11T05:00:09.565Z,51.23
2023-06-11T05:02:44.861Z,51.89
2023-06-11T05:05:14.300Z,52.65
2023-06-11T05:07:42.853Z,53.32
2023-06-11T05:10:10.153Z,53.75
2023-06-11T05:12:37.719Z,54.15
2023-06-11T05:15:05.463Z,53.48
2023-06-11T05:17:33.973Z,53.68
2023-06-11T05:20:01.121Z,53.40
2023-06-11T05:22:28.208Z,52.29
2023-06-11T05:24:55.436Z,51.83
2023-06-11T05:27:25.672Z,51.64
2023-06-11T05:29:53.208Z,50.79
2023-06-11T05:32:20.240Z,50.79
2023-06-11T05:34:50.910Z,49.78
2023-06-11T05:37:18.599Z,49.86
2023-06-11T05:39:46.866Z,49.52
2023-06-11T05:42:14.031Z,48.45
2023-06-11T05:44:43.223Z,48.04
2023-06-11T05:47:10.294Z,47.66
2023-06-11T05:49:38.522Z,47.96
2023-06-11T05:52:05.796Z,48.01
2023-06-11T05:54:32.773Z,47.60
2023-06-11T05:56:59.848Z,47.10
2023-06-11T05:59:26.839Z,47.96
2023-06-11T06:01:54.278Z,46.98
2023-06-11T06:04:23.242Z,46.89
2023-06-11T06:06:50.178Z,46.67
2023-06-11T06:09:29.197Z,46.97
2023-06-11T06:11:56.173Z,46.76
2023-06-11T06:14:23.226Z,47.22
2023-06-11T06:16:54.121Z,46.68
2023-06-11T06:19:26.853Z,46.44
2023-06-11T06:21:53.768Z,46.68
2023-06-11T06:24:21.137Z,46.50
2023-06-11T06:26:57.314Z,46.69
2023-06-11T06:29:27.734Z,46.55
2023-06-11T06:31:55.755Z,46.18
2023-06-11T06:34:23.142Z,46.28
2023-06-11T06:36:50.223Z,46.01
2023-06-11T06:39:17.174Z,45.00
2023-06-11T06:41:44.553Z,45.37
2023-06-11T06:44:13.881Z,45.33
2023-06-11T06:46:40.941Z,45.41
2023-06-11T06:49:07.909Z,45.11
2023-06-11T06:51:35.017Z,45.04
2023-06-11T06:54:01.992Z,44.49
2023-06-11T06:56:29.432Z,43.84
2023-06-11T06:58:56.710Z,43.56
2023-06-11T07:01:23.706Z,43.18
2023-06-11T07:03:50.908Z,42.81
2023-06-11T07:06:19.265Z,42.65
2023-06-11T07:08:46.265Z,42.58
2023-06-11T07:11:16.184Z,42.80
2023-06-11T07:13:45.710Z,42.09
2023-06-11T07:16:13.036Z,41.93
2023-06-11T07:18:44.149Z,41.42
2023-06-11T07:21:11.370Z,41.86
2023-06-11T07:23:38.395Z,41.90
2023-06-11T07:26:06.243Z,42.22
2023-06-11T07:28:33.297Z,41.77
2023-06-11T07:31:01.045Z,41.51
2023-06-11T07:33:29.342Z,41.46
2023-06-11T07:35:57.980Z,40.80
2023-06-11T07:38:25.479Z,39.90
2023-06-11T07:40:53.270Z,39.90
2023-06-11T07:43:23.527Z,39.85
2023-06-11T07:45:50.861Z,39.68
2023-06-11T07:48:18.786Z,40.23
2023-06-11T07:50:47.558Z,39.43
2023-06-11T07:53:15.732Z,39.47
2023-06-11T07:55:43.275Z,39.42
2023-06-11T07:58:10.220Z,39.02
2023-06-11T08:00:37.137Z,39.03
2023-06-11T08:03:04.086Z,39.47
2023-06-11T08:05:31.427Z,39.22
2023-06-11T08:07:58.560Z,38.61
2023-06-11T08:10:25.757Z,38.97
2023-06-11T08:12:52.689Z,38.22
2023-06-11T08:15:20.719Z,38.61
2023-06-11T08:17:47.649Z,38.53
2023-06-11T08:20:17.427Z,38.45
2023-06-11T08:22:44.404Z,38.46
2023-06-11T08:25:12.189Z,37.73
2023-06-11T08:27:39.110Z,37.52
2023-06-11T08:30:07.997Z,37.36
2023-06-11T08:32:35.220Z,37.83
2023-06-11T08:35:02.220Z,37.54
2023-06-11T08:37:29.133Z,37.60
2023-06-11T08:39:56.162Z,36.90
2023-06-11T08:42:23.101Z,36.37
2023-06-11T08:44:50.088Z,36.69
2023-06-11T08:47:17.954Z,36.53
2023-06-11T08:49:46.239Z,36.31
2023-06-11T08:52:15.032Z,35.53
2023-06-11T08:54:41.953Z,35.79
2023-06-11T08:57:09.744Z,35.91
2023-06-11T08:59:36.726Z,36.53
2023-06-11T09:02:04.354Z,36.86
2023-06-11T09:04:31.491Z,36.59
2023-06-11T09:07:00.589Z,36.42
2023-06-11T09:09:27.909Z,35.83
2023-06-11T09:11:54.930Z,35.25
2023-06-11T09:14:22.440Z,35.78
2023-06-11T09:16:50.002Z,34.71
2023-06-11T09:19:19.476Z,34.80
2023-06-11T09:21:55.926Z,33.96
2023-06-11T09:24:24.814Z,33.63
2023-06-11T09:26:58.339Z,33.40
2023-06-11T09:29:27.717Z,34.00
2023-06-11T09:32:31.267Z,33.81
2023-06-11T09:34:59.376Z,32.88
2023-06-11T09:37:26.531Z,32.17
2023-06-11T09:39:53.526Z,32.15
2023-06-11T09:42:28.225Z,32.00
2023-06-11T09:45:02.441Z,31.48
2023-06-11T09:47:33.053Z,32.42
2023-06-11T09:50:00.547Z,32.92
2023-06-11T09:52:29.124Z,31.61
2023-06-11T09:54:56.763Z,31.82
2023-06-11T09:57:23.743Z,32.30
2023-06-11T09:59:51.549Z,32.09
2023-06-11T10:02:18.515Z,32.81
2023-06-11T10:04:45.888Z,32.34
2023-06-11T10:07:13.077Z,32.42
2023-06-11T10:09:41.963Z,32.59
2023-06-11T10:12:09.681Z,32.64
2023-06-11T10:14:38.258Z,33.04
2023-06-11T10:17:09.683Z,32.68
2023-06-11T10:19:38.171Z,32.47
2023-06-11T10:22:05.342Z,31.94
2023-06-11T10:24:32.469Z,32.15
2023-06-11T10:27:13.640Z,31.82
2023-06-11T10:29:48.086Z,31.80
2023-06-11T10:32:22.706Z,31.59
2023-06-11T10:35:04.459Z,31.30
2023-06-11T10:37:37.736Z,31.18
2023-06-11T10:40:09.468Z,30.77
2023-06-11T10:42:44.848Z,31.16
2023-06-11T10:45:15.541Z,31.34
2023-06-11T10:47:55.447Z,31.29
2023-06-11T10:50:31.654Z,31.53
2023-06-11T10:53:09.088Z,31.70
2023-06-11T10:55:36.824Z,31.14
2023-06-11T10:58:03.798Z,31.54
2023-06-11T11:00:34.235Z,31.45
2023-06-11T11:03:05.010Z,31.96
2023-06-11T11:05:32.833Z,31.18
2023-06-11T11:08:02.631Z,31.46
2023-06-11T11:10:30.175Z,30.94
2023-06-11T11:12:57.575Z,31.37
2023-06-11T11:15:24.751Z,31.08
2023-06-11T11:17:52.377Z,30.83
2023-06-11T11:20:20.909Z,31.15
2023-06-11T11:22:56.708Z,31.39
2023-06-11T11:25:29.359Z,31.08
2023-06-11T11:27:57.342Z,31.17
2023-06-11T11:30:26.015Z,30.94
2023-06-11T11:32:53.625Z,31.44
2023-06-11T11:35:22.827Z,30.80
2023-06-11T11:37:53.253Z,31.51
2023-06-11T11:40:21.995Z,31.34
2023-06-11T11:42:50.011Z,30.87
2023-06-11T11:45:19.164Z,31.03
2023-06-11T11:47:53.561Z,30.63
2023-06-11T11:50:31.522Z,30.75
2023-06-11T11:53:04.278Z,30.90
2023-06-11T11:56:00.340Z,31.18
2023-06-11T11:58:40.506Z,30.88
2023-06-11T12:01:10.679Z,30.36
2023-06-11T12:03:38.434Z,30.49
2023-06-11T12:06:09.375Z,30.68
2023-06-11T12:08:37.440Z,30.76
2023-06-11T12:11:07.714Z,30.25
2023-06-11T12:13:36.124Z,30.89
2023-06-11T12:16:04.943Z,31.61
2023-06-11T12:18:33.510Z,31.68
2023-06-11T12:21:00.427Z,30.87
2023-06-11T12:23:27.746Z,30.33
2023-06-11T12:25:54.719Z,30.18
2023-06-11T12:28:21.891Z,30.00
2023-06-11T12:30:49.205Z,29.54
2023-06-11T12:33:17.017Z,29.60
2023-06-11T12:35:44.390Z,29.75
2023-06-11T12:38:11.616Z,29.55
2023-06-11T12:40:38.800Z,29.81
2023-06-11T12:43:05.870Z,29.07
2023-06-11T12:45:38.551Z,28.79
2023-06-11T12:48:06.428Z,29.22
2023-06-11T12:50:33.660Z,29.64
2023-06-11T12:53:00.624Z,29.89
2023-06-11T12:55:27.675Z,29.57
2023-06-11T12:57:54.710Z,29.72
2023-06-11T13:00:23.266Z,29.89
2023-06-11T13:02:50.490Z,30.43
2023-06-11T13:05:17.542Z,30.49
2023-06-11T13:07:46.347Z,30.27
2023-06-11T13:10:13.657Z,30.04
2023-06-11T13:12:40.937Z,30.76
2023-06-11T13:15:08.721Z,31.07
2023-06-11T13:17:36.138Z,31.46
2023-06-11T13:20:03.354Z,31.15
2023-06-11T13:22:30.317Z,30.95
2023-06-11T13:24:57.320Z,31.15
2023-06-11T13:27:24.250Z,31.08
2023-06-11T13:29:51.206Z,30.84
2023-06-11T13:32:19.803Z,31.28
2023-06-11T13:34:46.946Z,31.20
2023-06-11T13:37:13.992Z,31.52
2023-06-11T13:39:41.479Z,31.41
2023-06-11T13:42:08.769Z,31.24
2023-06-11T13:44:35.798Z,32.21
2023-06-11T13:47:02.856Z,31.93
2023-06-11T13:49:29.925Z,32.29
2023-06-11T13:51:56.881Z,32.56
2023-06-11T13:54:25.711Z,32.58
2023-06-11T13:56:54.517Z,32.55
2023-06-11T13:59:22.356Z,32.42
2023-06-11T14:01:49.378Z,32.03
2023-06-11T14:04:16.343Z,31.87
2023-06-11T14:06:43.339Z,32.07
2023-06-11T14:09:10.544Z,32.24
2023-06-11T14:11:37.492Z,32.10
2023-06-11T14:14:04.460Z,32.05
2023-06-11T14:16:31.695Z,32.30
2023-06-11T14:18:58.691Z,32.05
2023-06-11T14:21:26.130Z,32.15
2023-06-11T14:23:53.201Z,32.17
2023-06-11T14:26:20.173Z,32.35
2023-06-11T14:28:47.102Z,32.80
2023-06-11T14:31:14.024Z,32.87
2023-06-11T14:33:40.973Z,32.85
2023-06-11T14:36:08.485Z,33.18
2023-06-11T14:38:35.485Z,33.27
2023-06-11T14:41:02.469Z,33.21
2023-06-11T14:43:29.406Z,32.84
2023-06-11T14:45:56.434Z,32.68
2023-06-11T14:48:23.450Z,33.07
2023-06-11T14:50:50.396Z,32.84
2023-06-11T14:53:17.457Z,32.37
2023-06-11T14:55:44.815Z,32.20
2023-06-11T14:58:11.868Z,32.58
2023-06-11T15:00:38.784Z,32.79
2023-06-11T15:03:09.110Z,32.69
2023-06-11T15:05:39.236Z,32.46
2023-06-11T15:08:06.237Z,32.67
2023-06-11T15:10:33.339Z,32.06
2023-06-11T15:13:00.261Z,32.34
2023-06-11T15:15:27.193Z,32.09
2023-06-11T15:17:54.177Z,32.20
2023-06-11T15:20:21.181Z,32.28
2023-06-11T15:22:48.119Z,32.02
2023-06-11T15:25:15.055Z,31.70
2023-06-11T15:27:42.580Z,32.28
2023-06-11T15:30:10.963Z,32.07
2023-06-11T15:32:38.286Z,32.27
2023-06-11T15:35:05.680Z,31.85
2023-06-11T15:37:32.699Z,31.47
2023-06-11T15:39:59.736Z,31.23
2023-06-11T15:42:26.665Z,31.18
2023-06-11T15:44:53.689Z,30.96
2023-06-11T15:47:20.706Z,31.04
2023-06-11T15:49:47.828Z,30.79
2023-06-11T15:52:15.225Z,30.74
2023-06-11T15:54:42.271Z,31.13
2023-06-11T15:57:09.338Z,31.19
2023-06-11T15:59:36.273Z,31.29
2023-06-11T16:02:03.648Z,31.34
2023-06-11T16:04:34.278Z,31.33
2023-06-11T16:07:01.640Z,31.28
2023-06-11T16:09:29.203Z,31.03
2023-06-11T16:11:56.535Z,31.46
2023-06-11T16:14:23.507Z,31.74
2023-06-11T16:16:50.576Z,32.03
2023-06-11T16:19:18.304Z,32.09
2023-06-11T16:21:45.421Z,32.19
2023-06-11T16:24:12.932Z,32.33
2023-06-11T16:26:40.097Z,32.15
2023-06-11T16:29:07.055Z,32.34
2023-06-11T16:31:34.097Z,32.51
2023-06-11T16:34:01.805Z,31.88
2023-06-11T16:36:30.053Z,31.98
2023-06-11T16:39:06.249Z,31.23
2023-06-11T16:41:45.818Z,30.54
2023-06-11T16:44:12.865Z,30.70
2023-06-11T16:46:39.817Z,30.41
2023-06-11T16:49:06.880Z,30.48
2023-06-11T16:51:33.882Z,30.40
2023-06-11T16:54:00.817Z,30.88
2023-06-11T16:56:27.721Z,30.88
2023-06-11T16:58:56.041Z,31.10
2023-06-11T17:01:24.748Z,31.63
2023-06-11T17:03:51.928Z,31.12
2023-06-11T17:06:18.881Z,31.26
2023-06-11T17:08:45.837Z,31.13
2023-06-11T17:11:12.818Z,30.65
2023-06-11T17:13:39.770Z,31.15
2023-06-11T17:16:07.158Z,30.65
2023-06-11T17:18:37.237Z,30.59
2023-06-11T17:21:05.467Z,31.04
2023-06-11T17:23:32.428Z,31.23
2023-06-11T17:25:59.370Z,30.96
2023-06-11T17:28:26.304Z,30.62
2023-06-11T17:30:53.326Z,31.20
2023-06-11T17:33:20.932Z,31.12
2023-06-11T17:35:48.605Z,30.78
2023-06-11T17:38:15.626Z,30.54
2023-06-11T17:40:42.602Z,30.41
2023-06-11T17:43:09.531Z,30.54
2023-06-11T17:45:36.512Z,30.20
2023-06-11T17:48:03.655Z,30.72
2023-06-11T17:50:30.663Z,30.84
2023-06-11T17:52:57.625Z,30.79
2023-06-11T17:55:25.188Z,31.23
2023-06-11T17:57:52.189Z,31.06
2023-06-11T18:00:19.157Z,31.05
2023-06-11T18:02:47.941Z,31.70
2023-06-11T18:05:15.217Z,31.80
2023-06-11T18:07:45.941Z,31.77
2023-06-11T18:10:14.831Z,31.81
2023-06-11T18:12:42.359Z,32.02
2023-06-11T18:15:22.566Z,31.95
2023-06-11T18:17:56.697Z,31.91
2023-06-11T18:20:23.774Z,32.06
2023-06-11T18:22:50.710Z,32.44
2023-06-11T18:25:17.797Z,31.89
2023-06-11T18:27:44.853Z,32.17
2023-06-11T18:30:12.159Z,32.71
2023-06-11T18:32:39.442Z,32.72
2023-06-11T18:35:06.661Z,32.92
2023-06-11T18:37:33.672Z,32.72
2023-06-11T18:40:00.615Z,32.95
2023-06-11T18:42:27.549Z,33.06
2023-06-11T18:44:54.454Z,33.52
2023-06-11T18:47:21.389Z,33.32
2023-06-11T18:49:48.295Z,33.27
2023-06-11T18:52:15.267Z,33.91
2023-06-11T18:54:42.189Z,33.50
2023-06-11T18:57:09.676Z,33.64
2023-06-11T18:59:37.320Z,33.87
2023-06-11T19:02:06.793Z,33.66
2023-06-11T19:04:33.721Z,33.92
2023-06-11T19:07:00.731Z,34.12
2023-06-11T19:09:27.668Z,34.39
2023-06-11T19:11:54.625Z,34.80
2023-06-11T19:14:21.573Z,34.42
2023-06-11T19:16:51.189Z,34.60
2023-06-11T19:19:18.288Z,35.03
2023-06-11T19:21:46.820Z,34.97
2023-06-11T19:24:17.619Z,35.05
2023-06-11T19:26:44.795Z,35.19
2023-06-11T19:29:12.012Z,35.11
2023-06-11T19:31:39.466Z,35.88
2023-06-11T19:34:06.633Z,35.69
2023-06-11T19:36:33.678Z,36.14
2023-06-11T19:39:00.698Z,36.14
2023-06-11T19:41:29.705Z,36.38
2023-06-11T19:43:57.751Z,36.86
2023-06-11T19:46:27.962Z,36.80
2023-06-11T19:48:56.464Z,37.27
2023-06-11T19:51:23.429Z,37.21
2023-06-11T19:53:52.621Z,37.33
2023-06-11T19:56:20.988Z,37.47
2023-06-11T19:58:48.598Z,37.45
2023-06-11T20:01:17.582Z,37.90
2023-06-11T20:03:45.546Z,37.76
2023-06-11T20:06:13.257Z,38.09
2023-06-11T20:08:40.905Z,38.42
2023-06-11T20:11:12.085Z,38.30
2023-06-11T20:13:44.020Z,38.91
2023-06-11T20:16:12.072Z,38.78
2023-06-11T20:18:43.505Z,38.65
2023-06-11T20:21:10.430Z,38.78
2023-06-11T20:23:37.384Z,38.78
2023-06-11T20:26:05.168Z,38.82
2023-06-11T20:28:32.259Z,38.95
2023-06-11T20:31:04.202Z,39.36
2023-06-11T20:33:32.839Z,39.32
2023-06-11T20:35:59.831Z,39.14
2023-06-11T20:38:26.754Z,39.22
2023-06-11T20:40:53.673Z,39.11
2023-06-11T20:43:20.674Z,39.13
2023-06-11T20:45:57.471Z,38.78
2023-06-11T20:48:25.481Z,38.92
2023-06-11T20:50:53.074Z,38.94
2023-06-11T20:53:33.306Z,38.83
2023-06-11T20:56:01.994Z,38.91
2023-06-11T20:58:28.958Z,38.85
2023-06-11T21:00:56.164Z,39.17
2023-06-11T21:03:23.460Z,39.07
2023-06-11T21:05:51.253Z,39.17
2023-06-11T21:08:19.083Z,39.23
2023-06-11T21:10:46.614Z,39.27
2023-06-11T21:13:13.745Z,38.98
2023-06-11T21:15:40.662Z,39.55
2023-06-11T21:18:07.724Z,39.49
2023-06-11T21:20:34.828Z,39.49
2023-06-11T21:23:01.803Z,39.45
2023-06-11T21:25:28.751Z,39.47
2023-06-11T21:27:55.661Z,39.28
2023-06-11T21:30:25.138Z,39.49
2023-06-11T21:32:52.095Z,39.47
2023-06-11T21:35:19.125Z,39.90
2023-06-11T21:37:46.081Z,39.67
2023-06-11T21:40:13.510Z,39.55
2023-06-11T21:42:40.713Z,39.71
2023-06-11T21:45:08.166Z,39.88
2023-06-11T21:47:35.138Z,39.75
2023-06-11T21:50:02.146Z,40.34
2023-06-11T21:52:29.063Z,40.82
2023-06-11T21:54:58.225Z,41.09
2023-06-11T21:57:25.705Z,41.63
2023-06-11T21:59:53.012Z,41.69
2023-06-11T22:02:19.951Z,41.68
2023-06-11T22:04:46.905Z,41.65
2023-06-11T22:07:14.129Z,42.11
2023-06-11T22:09:41.667Z,42.58
2023-06-11T22:12:09.615Z,42.76
2023-06-11T22:14:37.871Z,42.50
2023-06-11T22:17:05.503Z,42.78
2023-06-11T22:19:37.975Z,43.33
2023-06-11T22:22:11.414Z,42.94
2023-06-11T22:24:39.037Z,43.06
2023-06-11T22:27:09.590Z,43.40
2023-06-11T22:29:36.510Z,43.17
2023-06-11T22:32:03.667Z,43.39
2023-06-11T22:34:30.609Z,43.68
2023-06-11T22:36:57.551Z,43.31
2023-06-11T22:39:24.467Z,43.54
2023-06-11T22:41:51.397Z,43.37
2023-06-11T22:44:18.324Z,43.63
2023-06-11T22:46:45.307Z,43.80
2023-06-11T22:49:12.632Z,43.76
2023-06-11T22:51:39.638Z,43.59
2023-06-11T22:54:09.314Z,43.41
2023-06-11T22:56:36.608Z,43.78
2023-06-11T22:59:03.540Z,43.52
2023-06-11T23:01:30.706Z,43.73
2023-06-11T23:03:57.751Z,43.35
2023-06-11T23:06:25.690Z,43.51
2023-06-11T23:08:52.742Z,43.55
2023-06-11T23:11:19.707Z,43.76
2023-06-11T23:13:46.640Z,44.08
2023-06-11T23:16:15.033Z,43.99
2023-06-11T23:18:43.208Z,44.04
2023-06-11T23:21:11.330Z,43.92
2023-06-11T23:23:42.500Z,44.17
2023-06-11T23:26:10.609Z,43.96
2023-06-11T23:28:38.088Z,44.15
2023-06-11T23:31:05.024Z,45.04
2023-06-11T23:33:32.026Z,44.68
2023-06-11T23:36:00.188Z,44.50
2023-06-11T23:38:27.386Z,44.63
2023-06-11T23:40:54.340Z,44.82
2023-06-11T23:43:21.257Z,44.83
2023-06-11T23:45:48.253Z,45.35
2023-06-11T23:48:15.558Z,45.34
2023-06-11T23:50:43.242Z,45.30
2023-06-11T23:53:11.253Z,44.92
2023-06-11T23:55:38.255Z,45.63
2023-06-11T23:58:23.353Z,45.84
